sensor_id;sensor_type;location;lat;lon;timestamp;P1;durP1;ratioP1;P2;durP2;ratioP2
9689;SDS011;4884;42.614;23.340;2023-09-08T00:01:59;15.40;;;13.80;;
9689;SDS011;4884;42.614;23.340;2023-09-08T00:04:24;14.50;;;13.30;;
9689;SDS011;4884;42.614;23.340;2023-09-08T00:06:50;14.50;;;13.00;;
9689;SDS011;4884;42.614;23.340;2023-09-08T00:09:15;13.87;;;10.87;;
9689;SDS011;4884;42.614;23.340;2023-09-08T00:11:41;11.17;;;10.17;;
9689;SDS011;4884;42.614;23.340;2023-09-08T00:14:06;12.70;;;10.43;;
9689;SDS011;4884;42.614;23.340;2023-09-08T00:16:32;10.47;;;8.67;;
9689;SDS011;4884;42.614;23.340;2023-09-08T00:18:57;10.17;;;9.27;;
9689;SDS011;4884;42.614;23.340;2023-09-08T00:21:24;9.43;;;8.50;;
9689;SDS011;4884;42.614;23.340;2023-09-08T00:23:50;8.40;;;7.60;;
9689;SDS011;4884;42.614;23.340;2023-09-08T00:26:16;7.63;;;6.90;;
9689;SDS011;4884;42.614;23.340;2023-09-08T00:28:41;7.73;;;7.13;;
9689;SDS011;4884;42.614;23.340;2023-09-08T00:31:06;8.70;;;7.80;;
9689;SDS011;4884;42.614;23.340;2023-09-08T00:33:32;9.37;;;6.63;;
9689;SDS011;4884;42.614;23.340;2023-09-08T00:35:57;6.23;;;5.73;;
9689;SDS011;4884;42.614;23.340;2023-09-08T00:38:23;7.47;;;6.13;;
9689;SDS011;4884;42.614;23.340;2023-09-08T00:40:55;7.00;;;6.23;;
9689;SDS011;4884;42.614;23.340;2023-09-08T00:43:38;8.83;;;7.00;;
9689;SDS011;4884;42.614;23.340;2023-09-08T00:46:03;6.63;;;6.00;;
9689;SDS011;4884;42.614;23.340;2023-09-08T00:48:29;8.47;;;6.40;;
9689;SDS011;4884;42.614;23.340;2023-09-08T00:50:54;7.57;;;5.83;;
9689;SDS011;4884;42.614;23.340;2023-09-08T00:53:20;6.67;;;6.07;;
9689;SDS011;4884;42.614;23.340;2023-09-08T00:55:46;6.13;;;5.47;;
9689;SDS011;4884;42.614;23.340;2023-09-08T00:58:12;6.90;;;5.90;;
9689;SDS011;4884;42.614;23.340;2023-09-08T01:00:37;9.93;;;5.63;;
9689;SDS011;4884;42.614;23.340;2023-09-08T01:03:03;6.87;;;5.83;;
9689;SDS011;4884;42.614;23.340;2023-09-08T01:05:28;7.50;;;5.50;;
9689;SDS011;4884;42.614;23.340;2023-09-08T01:07:54;5.60;;;5.10;;
9689;SDS011;4884;42.614;23.340;2023-09-08T01:10:20;8.77;;;5.77;;
9689;SDS011;4884;42.614;23.340;2023-09-08T01:12:46;6.33;;;5.30;;
9689;SDS011;4884;42.614;23.340;2023-09-08T01:15:11;9.10;;;5.60;;
9689;SDS011;4884;42.614;23.340;2023-09-08T01:17:37;8.83;;;5.83;;
9689;SDS011;4884;42.614;23.340;2023-09-08T01:20:24;7.17;;;5.83;;
9689;SDS011;4884;42.614;23.340;2023-09-08T01:25:55;7.33;;;5.53;;
9689;SDS011;4884;42.614;23.340;2023-09-08T01:28:24;8.07;;;5.63;;
9689;SDS011;4884;42.614;23.340;2023-09-08T01:30:50;6.60;;;5.87;;
9689;SDS011;4884;42.614;23.340;2023-09-08T01:33:16;6.47;;;5.37;;
9689;SDS011;4884;42.614;23.340;2023-09-08T01:35:42;10.67;;;6.13;;
9689;SDS011;4884;42.614;23.340;2023-09-08T01:38:08;6.90;;;5.10;;
9689;SDS011;4884;42.614;23.340;2023-09-08T01:40:33;5.97;;;5.47;;
9689;SDS011;4884;42.614;23.340;2023-09-08T01:42:59;8.73;;;5.67;;
9689;SDS011;4884;42.614;23.340;2023-09-08T01:45:25;7.60;;;5.20;;
9689;SDS011;4884;42.614;23.340;2023-09-08T01:47:50;7.53;;;6.60;;
9689;SDS011;4884;42.614;23.340;2023-09-08T01:50:16;9.60;;;6.57;;
9689;SDS011;4884;42.614;23.340;2023-09-08T01:52:46;6.67;;;6.10;;
9689;SDS011;4884;42.614;23.340;2023-09-08T01:55:12;6.77;;;5.67;;
9689;SDS011;4884;42.614;23.340;2023-09-08T01:57:37;7.33;;;5.97;;
9689;SDS011;4884;42.614;23.340;2023-09-08T02:00:02;11.50;;;5.83;;
9689;SDS011;4884;42.614;23.340;2023-09-08T02:02:28;7.07;;;5.83;;
9689;SDS011;4884;42.614;23.340;2023-09-08T02:04:53;7.13;;;5.53;;
9689;SDS011;4884;42.614;23.340;2023-09-08T02:07:19;6.67;;;6.07;;
9689;SDS011;4884;42.614;23.340;2023-09-08T02:09:44;7.37;;;6.50;;
9689;SDS011;4884;42.614;23.340;2023-09-08T02:12:10;8.73;;;6.23;;
9689;SDS011;4884;42.614;23.340;2023-09-08T02:14:35;10.07;;;6.60;;
9689;SDS011;4884;42.614;23.340;2023-09-08T02:17:01;6.57;;;5.87;;
9689;SDS011;4884;42.614;23.340;2023-09-08T02:19:27;6.87;;;6.27;;
9689;SDS011;4884;42.614;23.340;2023-09-08T02:21:52;6.57;;;5.97;;
9689;SDS011;4884;42.614;23.340;2023-09-08T02:24:18;7.37;;;6.10;;
9689;SDS011;4884;42.614;23.340;2023-09-08T02:26:43;10.97;;;6.80;;
9689;SDS011;4884;42.614;23.340;2023-09-08T02:29:09;7.63;;;6.33;;
9689;SDS011;4884;42.614;23.340;2023-09-08T02:31:34;6.27;;;5.67;;
9689;SDS011;4884;42.614;23.340;2023-09-08T02:33:59;8.27;;;5.90;;
9689;SDS011;4884;42.614;23.340;2023-09-08T02:36:25;6.67;;;6.07;;
9689;SDS011;4884;42.614;23.340;2023-09-08T02:38:54;6.30;;;5.20;;
9689;SDS011;4884;42.614;23.340;2023-09-08T02:41:20;6.83;;;6.10;;
9689;SDS011;4884;42.614;23.340;2023-09-08T02:43:46;7.07;;;5.83;;
9689;SDS011;4884;42.614;23.340;2023-09-08T02:46:12;7.07;;;5.30;;
9689;SDS011;4884;42.614;23.340;2023-09-08T02:48:38;6.20;;;5.60;;
9689;SDS011;4884;42.614;23.340;2023-09-08T02:51:04;6.63;;;5.80;;
9689;SDS011;4884;42.614;23.340;2023-09-08T02:53:29;6.50;;;5.70;;
9689;SDS011;4884;42.614;23.340;2023-09-08T02:55:55;7.97;;;5.40;;
9689;SDS011;4884;42.614;23.340;2023-09-08T02:58:21;11.53;;;6.57;;
9689;SDS011;4884;42.614;23.340;2023-09-08T03:00:47;6.67;;;6.00;;
9689;SDS011;4884;42.614;23.340;2023-09-08T03:03:12;9.07;;;5.87;;
9689;SDS011;4884;42.614;23.340;2023-09-08T03:05:38;11.37;;;6.47;;
9689;SDS011;4884;42.614;23.340;2023-09-08T03:08:03;8.47;;;6.27;;
9689;SDS011;4884;42.614;23.340;2023-09-08T03:10:30;7.70;;;5.90;;
9689;SDS011;4884;42.614;23.340;2023-09-08T03:12:59;11.40;;;6.87;;
9689;SDS011;4884;42.614;23.340;2023-09-08T03:15:24;9.57;;;6.90;;
9689;SDS011;4884;42.614;23.340;2023-09-08T03:17:53;8.83;;;7.80;;
9689;SDS011;4884;42.614;23.340;2023-09-08T03:20:19;7.87;;;7.17;;
9689;SDS011;4884;42.614;23.340;2023-09-08T03:22:44;8.00;;;7.20;;
9689;SDS011;4884;42.614;23.340;2023-09-08T03:25:10;9.50;;;8.20;;
9689;SDS011;4884;42.614;23.340;2023-09-08T03:27:35;8.60;;;7.80;;
9689;SDS011;4884;42.614;23.340;2023-09-08T03:30:01;7.70;;;7.03;;
9689;SDS011;4884;42.614;23.340;2023-09-08T03:32:28;9.10;;;7.50;;
9689;SDS011;4884;42.614;23.340;2023-09-08T03:34:54;7.53;;;6.83;;
9689;SDS011;4884;42.614;23.340;2023-09-08T03:37:19;9.27;;;8.23;;
9689;SDS011;4884;42.614;23.340;2023-09-08T03:39:44;13.83;;;8.10;;
9689;SDS011;4884;42.614;23.340;2023-09-08T03:42:10;9.87;;;8.50;;
9689;SDS011;4884;42.614;23.340;2023-09-08T03:44:35;10.00;;;9.00;;
9689;SDS011;4884;42.614;23.340;2023-09-08T03:47:01;9.20;;;8.27;;
9689;SDS011;4884;42.614;23.340;2023-09-08T03:49:27;10.57;;;9.17;;
9689;SDS011;4884;42.614;23.340;2023-09-08T03:51:53;13.63;;;10.70;;
9689;SDS011;4884;42.614;23.340;2023-09-08T03:54:18;10.80;;;9.90;;
9689;SDS011;4884;42.614;23.340;2023-09-08T03:56:44;11.87;;;10.67;;
9689;SDS011;4884;42.614;23.340;2023-09-08T03:59:09;11.53;;;10.33;;
9689;SDS011;4884;42.614;23.340;2023-09-08T04:01:34;12.83;;;10.53;;
9689;SDS011;4884;42.614;23.340;2023-09-08T04:04:00;11.03;;;10.07;;
9689;SDS011;4884;42.614;23.340;2023-09-08T04:06:25;12.03;;;10.87;;
9689;SDS011;4884;42.614;23.340;2023-09-08T04:08:52;15.87;;;11.70;;
9689;SDS011;4884;42.614;23.340;2023-09-08T04:11:17;11.67;;;10.53;;
9689;SDS011;4884;42.614;23.340;2023-09-08T04:13:42;11.63;;;10.43;;
9689;SDS011;4884;42.614;23.340;2023-09-08T04:16:08;10.90;;;9.93;;
9689;SDS011;4884;42.614;23.340;2023-09-08T04:18:34;11.87;;;10.03;;
9689;SDS011;4884;42.614;23.340;2023-09-08T04:20:59;10.77;;;9.50;;
9689;SDS011;4884;42.614;23.340;2023-09-08T04:23:25;10.47;;;9.47;;
9689;SDS011;4884;42.614;23.340;2023-09-08T04:25:50;10.13;;;9.13;;
9689;SDS011;4884;42.614;23.340;2023-09-08T04:28:15;11.87;;;9.47;;
9689;SDS011;4884;42.614;23.340;2023-09-08T04:30:41;11.43;;;8.57;;
9689;SDS011;4884;42.614;23.340;2023-09-08T04:33:06;10.27;;;8.73;;
9689;SDS011;4884;42.614;23.340;2023-09-08T04:35:31;8.50;;;7.70;;
9689;SDS011;4884;42.614;23.340;2023-09-08T04:37:57;11.70;;;8.20;;
9689;SDS011;4884;42.614;23.340;2023-09-08T04:40:22;8.23;;;7.43;;
9689;SDS011;4884;42.614;23.340;2023-09-08T04:42:48;9.87;;;7.80;;
9689;SDS011;4884;42.614;23.340;2023-09-08T04:45:13;8.33;;;7.30;;
9689;SDS011;4884;42.614;23.340;2023-09-08T04:47:38;10.17;;;7.33;;
9689;SDS011;4884;42.614;23.340;2023-09-08T04:50:04;7.30;;;6.60;;
9689;SDS011;4884;42.614;23.340;2023-09-08T04:52:30;8.60;;;7.27;;
9689;SDS011;4884;42.614;23.340;2023-09-08T04:54:55;12.40;;;7.07;;
9689;SDS011;4884;42.614;23.340;2023-09-08T04:57:20;7.77;;;6.53;;
9689;SDS011;4884;42.614;23.340;2023-09-08T04:59:46;8.33;;;6.53;;
9689;SDS011;4884;42.614;23.340;2023-09-08T05:02:11;7.23;;;6.50;;
9689;SDS011;4884;42.614;23.340;2023-09-08T05:04:36;7.17;;;6.47;;
9689;SDS011;4884;42.614;23.340;2023-09-08T05:07:02;11.27;;;7.43;;
9689;SDS011;4884;42.614;23.340;2023-09-08T05:09:27;8.03;;;7.33;;
9689;SDS011;4884;42.614;23.340;2023-09-08T05:11:53;9.40;;;6.97;;
9689;SDS011;4884;42.614;23.340;2023-09-08T05:14:18;8.23;;;7.43;;
9689;SDS011;4884;42.614;23.340;2023-09-08T05:16:44;9.73;;;7.17;;
9689;SDS011;4884;42.614;23.340;2023-09-08T05:19:14;8.33;;;6.93;;
9689;SDS011;4884;42.614;23.340;2023-09-08T05:21:40;9.50;;;6.70;;
9689;SDS011;4884;42.614;23.340;2023-09-08T05:24:07;7.40;;;6.03;;
9689;SDS011;4884;42.614;23.340;2023-09-08T05:26:33;6.70;;;6.10;;
9689;SDS011;4884;42.614;23.340;2023-09-08T05:29:01;7.20;;;6.60;;
9689;SDS011;4884;42.614;23.340;2023-09-08T05:31:26;6.70;;;5.90;;
9689;SDS011;4884;42.614;23.340;2023-09-08T05:33:52;6.40;;;5.80;;
9689;SDS011;4884;42.614;23.340;2023-09-08T05:36:17;10.10;;;6.10;;
9689;SDS011;4884;42.614;23.340;2023-09-08T05:38:42;8.60;;;6.30;;
9689;SDS011;4884;42.614;23.340;2023-09-08T05:41:08;6.53;;;5.60;;
9689;SDS011;4884;42.614;23.340;2023-09-08T05:43:33;7.27;;;5.57;;
9689;SDS011;4884;42.614;23.340;2023-09-08T05:45:58;7.40;;;4.83;;
9689;SDS011;4884;42.614;23.340;2023-09-08T05:48:24;6.60;;;5.47;;
9689;SDS011;4884;42.614;23.340;2023-09-08T05:50:49;6.87;;;5.20;;
9689;SDS011;4884;42.614;23.340;2023-09-08T05:53:15;6.10;;;5.50;;
9689;SDS011;4884;42.614;23.340;2023-09-08T05:55:40;5.80;;;5.30;;
9689;SDS011;4884;42.614;23.340;2023-09-08T05:58:05;8.40;;;5.50;;
9689;SDS011;4884;42.614;23.340;2023-09-08T06:00:32;7.23;;;5.00;;
9689;SDS011;4884;42.614;23.340;2023-09-08T06:02:58;6.83;;;5.33;;
9689;SDS011;4884;42.614;23.340;2023-09-08T06:05:23;6.23;;;5.13;;
9689;SDS011;4884;42.614;23.340;2023-09-08T06:07:49;5.50;;;5.00;;
9689;SDS011;4884;42.614;23.340;2023-09-08T06:10:14;5.00;;;4.60;;
9689;SDS011;4884;42.614;23.340;2023-09-08T06:12:40;7.20;;;4.70;;
9689;SDS011;4884;42.614;23.340;2023-09-08T06:15:05;5.00;;;4.60;;
9689;SDS011;4884;42.614;23.340;2023-09-08T06:17:31;6.70;;;4.57;;
9689;SDS011;4884;42.614;23.340;2023-09-08T06:19:56;5.93;;;5.40;;
9689;SDS011;4884;42.614;23.340;2023-09-08T06:22:22;4.77;;;4.37;;
9689;SDS011;4884;42.614;23.340;2023-09-08T06:24:47;5.63;;;5.20;;
9689;SDS011;4884;42.614;23.340;2023-09-08T06:27:14;7.30;;;4.77;;
9689;SDS011;4884;42.614;23.340;2023-09-08T06:29:40;7.70;;;4.97;;
9689;SDS011;4884;42.614;23.340;2023-09-08T06:32:08;7.60;;;4.70;;
9689;SDS011;4884;42.614;23.340;2023-09-08T06:34:34;5.17;;;4.73;;
9689;SDS011;4884;42.614;23.340;2023-09-08T06:37:00;4.77;;;4.30;;
9689;SDS011;4884;42.614;23.340;2023-09-08T06:39:26;6.20;;;4.93;;
9689;SDS011;4884;42.614;23.340;2023-09-08T06:41:51;5.23;;;4.73;;
9689;SDS011;4884;42.614;23.340;2023-09-08T06:44:17;7.40;;;4.47;;
9689;SDS011;4884;42.614;23.340;2023-09-08T06:46:42;5.37;;;4.60;;
9689;SDS011;4884;42.614;23.340;2023-09-08T06:49:08;18.17;;;16.30;;
9689;SDS011;4884;42.614;23.340;2023-09-08T06:51:33;22.07;;;14.47;;
9689;SDS011;4884;42.614;23.340;2023-09-08T06:53:58;7.67;;;5.63;;
9689;SDS011;4884;42.614;23.340;2023-09-08T06:56:27;7.87;;;5.07;;
9689;SDS011;4884;42.614;23.340;2023-09-08T06:58:53;8.03;;;4.63;;
9689;SDS011;4884;42.614;23.340;2023-09-08T07:01:18;6.23;;;4.33;;
9689;SDS011;4884;42.614;23.340;2023-09-08T07:03:44;5.63;;;5.03;;
9689;SDS011;4884;42.614;23.340;2023-09-08T07:06:10;4.97;;;4.30;;
9689;SDS011;4884;42.614;23.340;2023-09-08T07:08:35;5.20;;;4.80;;
9689;SDS011;4884;42.614;23.340;2023-09-08T07:11:00;5.63;;;4.57;;
9689;SDS011;4884;42.614;23.340;2023-09-08T07:13:26;5.53;;;3.63;;
9689;SDS011;4884;42.614;23.340;2023-09-08T07:15:51;6.90;;;4.80;;
9689;SDS011;4884;42.614;23.340;2023-09-08T07:18:17;4.57;;;4.17;;
9689;SDS011;4884;42.614;23.340;2023-09-08T07:20:45;5.50;;;4.40;;
9689;SDS011;4884;42.614;23.340;2023-09-08T07:23:12;5.70;;;5.00;;
9689;SDS011;4884;42.614;23.340;2023-09-08T07:25:38;6.95;;;4.43;;
9689;SDS011;4884;42.614;23.340;2023-09-08T07:28:03;6.25;;;4.28;;
9689;SDS011;4884;42.614;23.340;2023-09-08T07:30:31;5.07;;;4.63;;
9689;SDS011;4884;42.614;23.340;2023-09-08T07:32:56;7.88;;;4.90;;
9689;SDS011;4884;42.614;23.340;2023-09-08T07:35:23;5.47;;;4.47;;
9689;SDS011;4884;42.614;23.340;2023-09-08T07:37:49;4.80;;;4.07;;
9689;SDS011;4884;42.614;23.340;2023-09-08T07:40:14;4.47;;;4.05;;
9689;SDS011;4884;42.614;23.340;2023-09-08T07:42:40;6.32;;;4.00;;
9689;SDS011;4884;42.614;23.340;2023-09-08T07:45:05;8.73;;;3.92;;
9689;SDS011;4884;42.614;23.340;2023-09-08T07:47:31;4.35;;;3.95;;
9689;SDS011;4884;42.614;23.340;2023-09-08T07:50:15;5.32;;;3.72;;
9689;SDS011;4884;42.614;23.340;2023-09-08T07:52:42;4.93;;;4.47;;
9689;SDS011;4884;42.614;23.340;2023-09-08T07:55:07;9.05;;;4.57;;
9689;SDS011;4884;42.614;23.340;2023-09-08T07:57:32;4.53;;;4.05;;
9689;SDS011;4884;42.614;23.340;2023-09-08T07:59:58;4.55;;;4.13;;
9689;SDS011;4884;42.614;23.340;2023-09-08T08:02:23;10.57;;;4.45;;
9689;SDS011;4884;42.614;23.340;2023-09-08T08:04:48;7.13;;;4.20;;
9689;SDS011;4884;42.614;23.340;2023-09-08T08:07:14;5.63;;;4.35;;
9689;SDS011;4884;42.614;23.340;2023-09-08T08:09:39;4.40;;;3.90;;
9689;SDS011;4884;42.614;23.340;2023-09-08T08:12:04;5.32;;;3.88;;
9689;SDS011;4884;42.614;23.340;2023-09-08T08:14:30;6.45;;;4.10;;
9689;SDS011;4884;42.614;23.340;2023-09-08T08:16:55;5.43;;;3.80;;
9689;SDS011;4884;42.614;23.340;2023-09-08T08:19:21;7.60;;;4.47;;
9689;SDS011;4884;42.614;23.340;2023-09-08T08:21:46;5.70;;;4.10;;
9689;SDS011;4884;42.614;23.340;2023-09-08T08:24:11;4.53;;;4.13;;
9689;SDS011;4884;42.614;23.340;2023-09-08T08:26:37;5.43;;;4.23;;
9689;SDS011;4884;42.614;23.340;2023-09-08T08:29:02;5.67;;;4.40;;
9689;SDS011;4884;42.614;23.340;2023-09-08T08:31:28;5.83;;;4.10;;
9689;SDS011;4884;42.614;23.340;2023-09-08T08:33:53;6.47;;;4.30;;
9689;SDS011;4884;42.614;23.340;2023-09-08T08:36:19;10.20;;;4.13;;
9689;SDS011;4884;42.614;23.340;2023-09-08T08:38:44;5.37;;;4.03;;
9689;SDS011;4884;42.614;23.340;2023-09-08T08:41:10;4.30;;;3.90;;
9689;SDS011;4884;42.614;23.340;2023-09-08T08:43:35;6.67;;;4.23;;
9689;SDS011;4884;42.614;23.340;2023-09-08T08:46:02;7.05;;;4.25;;
9689;SDS011;4884;42.614;23.340;2023-09-08T08:48:29;5.18;;;4.35;;
9689;SDS011;4884;42.614;23.340;2023-09-08T08:50:55;6.63;;;4.70;;
9689;SDS011;4884;42.614;23.340;2023-09-08T08:53:21;5.32;;;4.82;;
9689;SDS011;4884;42.614;23.340;2023-09-08T08:55:47;3.80;;;3.50;;
9689;SDS011;4884;42.614;23.340;2023-09-08T08:58:14;6.95;;;4.00;;
9689;SDS011;4884;42.614;23.340;2023-09-08T09:00:40;4.90;;;4.53;;
9689;SDS011;4884;42.614;23.340;2023-09-08T09:03:06;5.65;;;4.03;;
9689;SDS011;4884;42.614;23.340;2023-09-08T09:05:32;9.20;;;4.63;;
9689;SDS011;4884;42.614;23.340;2023-09-08T09:07:58;7.03;;;4.68;;
9689;SDS011;4884;42.614;23.340;2023-09-08T09:10:24;6.07;;;4.22;;
9689;SDS011;4884;42.614;23.340;2023-09-08T09:12:49;5.05;;;4.30;;
9689;SDS011;4884;42.614;23.340;2023-09-08T09:15:14;6.97;;;4.25;;
9689;SDS011;4884;42.614;23.340;2023-09-08T09:17:40;8.57;;;4.97;;
9689;SDS011;4884;42.614;23.340;2023-09-08T09:20:38;4.78;;;4.38;;
9689;SDS011;4884;42.614;23.340;2023-09-08T09:22:57;7.88;;;4.15;;
9689;SDS011;4884;42.614;23.340;2023-09-08T09:25:23;6.47;;;4.38;;
9689;SDS011;4884;42.614;23.340;2023-09-08T09:27:51;5.07;;;4.60;;
9689;SDS011;4884;42.614;23.340;2023-09-08T09:30:17;5.28;;;4.78;;
9689;SDS011;4884;42.614;23.340;2023-09-08T09:32:43;5.28;;;4.85;;
9689;SDS011;4884;42.614;23.340;2023-09-08T09:35:09;4.68;;;4.32;;
9689;SDS011;4884;42.614;23.340;2023-09-08T09:37:34;5.68;;;4.35;;
9689;SDS011;4884;42.614;23.340;2023-09-08T09:40:01;5.38;;;4.85;;
9689;SDS011;4884;42.614;23.340;2023-09-08T09:42:27;5.47;;;4.53;;
9689;SDS011;4884;42.614;23.340;2023-09-08T09:44:53;5.00;;;4.50;;
9689;SDS011;4884;42.614;23.340;2023-09-08T09:47:21;8.52;;;4.65;;
9689;SDS011;4884;42.614;23.340;2023-09-08T09:49:47;6.38;;;4.93;;
9689;SDS011;4884;42.614;23.340;2023-09-08T09:52:14;5.50;;;5.00;;
9689;SDS011;4884;42.614;23.340;2023-09-08T09:54:44;5.55;;;4.82;;
9689;SDS011;4884;42.614;23.340;2023-09-08T09:57:11;8.85;;;4.82;;
9689;SDS011;4884;42.614;23.340;2023-09-08T09:59:39;5.00;;;4.28;;
9689;SDS011;4884;42.614;23.340;2023-09-08T10:02:06;9.40;;;4.60;;
9689;SDS011;4884;42.614;23.340;2023-09-08T10:04:38;6.25;;;4.57;;
9689;SDS011;4884;42.614;23.340;2023-09-08T10:07:05;9.75;;;4.50;;
9689;SDS011;4884;42.614;23.340;2023-09-08T10:09:30;4.53;;;4.10;;
9689;SDS011;4884;42.614;23.340;2023-09-08T10:11:55;5.57;;;4.07;;
9689;SDS011;4884;42.614;23.340;2023-09-08T10:14:26;9.10;;;4.60;;
9689;SDS011;4884;42.614;23.340;2023-09-08T10:16:53;6.00;;;4.45;;
9689;SDS011;4884;42.614;23.340;2023-09-08T10:19:22;5.25;;;3.70;;
9689;SDS011;4884;42.614;23.340;2023-09-08T10:21:48;5.88;;;4.03;;
9689;SDS011;4884;42.614;23.340;2023-09-08T10:24:38;4.22;;;3.92;;
9689;SDS011;4884;42.614;23.340;2023-09-08T10:27:09;4.85;;;3.83;;
9689;SDS011;4884;42.614;23.340;2023-09-08T10:29:35;5.72;;;4.65;;
9689;SDS011;4884;42.614;23.340;2023-09-08T10:32:01;5.35;;;4.68;;
9689;SDS011;4884;42.614;23.340;2023-09-08T10:34:27;5.18;;;4.78;;
9689;SDS011;4884;42.614;23.340;2023-09-08T10:36:53;10.65;;;4.70;;
9689;SDS011;4884;42.614;23.340;2023-09-08T10:44:45;4.75;;;4.38;;
9689;SDS011;4884;42.614;23.340;2023-09-08T10:47:25;5.00;;;4.47;;
9689;SDS011;4884;42.614;23.340;2023-09-08T10:49:51;5.72;;;4.82;;
9689;SDS011;4884;42.614;23.340;2023-09-08T10:52:23;5.30;;;4.85;;
9689;SDS011;4884;42.614;23.340;2023-09-08T10:54:50;5.75;;;4.50;;
9689;SDS011;4884;42.614;23.340;2023-09-08T10:57:17;4.43;;;4.13;;
9689;SDS011;4884;42.614;23.340;2023-09-08T10:59:54;6.03;;;4.05;;
9689;SDS011;4884;42.614;23.340;2023-09-08T11:02:37;7.07;;;4.38;;
9689;SDS011;4884;42.614;23.340;2023-09-08T11:05:11;4.47;;;3.63;;
9689;SDS011;4884;42.614;23.340;2023-09-08T11:07:41;5.38;;;4.65;;
9689;SDS011;4884;42.614;23.340;2023-09-08T11:10:08;5.15;;;4.43;;
9689;SDS011;4884;42.614;23.340;2023-09-08T11:12:34;4.88;;;4.13;;
9689;SDS011;4884;42.614;23.340;2023-09-08T11:15:01;7.03;;;4.70;;
9689;SDS011;4884;42.614;23.340;2023-09-08T11:17:30;5.35;;;4.47;;
9689;SDS011;4884;42.614;23.340;2023-09-08T11:19:56;4.32;;;4.03;;
9689;SDS011;4884;42.614;23.340;2023-09-08T11:22:22;5.32;;;4.85;;
9689;SDS011;4884;42.614;23.340;2023-09-08T11:24:55;4.80;;;4.40;;
9689;SDS011;4884;42.614;23.340;2023-09-08T11:27:22;5.13;;;4.32;;
9689;SDS011;4884;42.614;23.340;2023-09-08T11:29:47;5.55;;;4.80;;
9689;SDS011;4884;42.614;23.340;2023-09-08T11:32:13;4.97;;;4.50;;
9689;SDS011;4884;42.614;23.340;2023-09-08T11:34:38;5.82;;;5.22;;
9689;SDS011;4884;42.614;23.340;2023-09-08T11:37:09;8.73;;;4.30;;
9689;SDS011;4884;42.614;23.340;2023-09-08T11:39:37;6.38;;;4.57;;
9689;SDS011;4884;42.614;23.340;2023-09-08T11:42:03;6.57;;;4.55;;
9689;SDS011;4884;42.614;23.340;2023-09-08T11:44:29;7.50;;;4.97;;
9689;SDS011;4884;42.614;23.340;2023-09-08T11:46:54;7.07;;;4.90;;
9689;SDS011;4884;42.614;23.340;2023-09-08T11:49:20;9.82;;;5.00;;
9689;SDS011;4884;42.614;23.340;2023-09-08T11:51:49;6.85;;;5.20;;
9689;SDS011;4884;42.614;23.340;2023-09-08T11:54:14;8.57;;;4.28;;
9689;SDS011;4884;42.614;23.340;2023-09-08T11:56:40;4.63;;;4.25;;
9689;SDS011;4884;42.614;23.340;2023-09-08T11:59:05;5.30;;;4.80;;
9689;SDS011;4884;42.614;23.340;2023-09-08T12:01:31;7.75;;;4.85;;
9689;SDS011;4884;42.614;23.340;2023-09-08T12:03:56;5.80;;;5.28;;
9689;SDS011;4884;42.614;23.340;2023-09-08T12:06:27;5.18;;;4.57;;
9689;SDS011;4884;42.614;23.340;2023-09-08T12:08:54;6.18;;;4.85;;
9689;SDS011;4884;42.614;23.340;2023-09-08T12:11:20;4.93;;;4.40;;
9689;SDS011;4884;42.614;23.340;2023-09-08T12:13:46;5.22;;;4.68;;
9689;SDS011;4884;42.614;23.340;2023-09-08T12:16:20;5.35;;;4.80;;
9689;SDS011;4884;42.614;23.340;2023-09-08T12:18:49;4.78;;;4.30;;
9689;SDS011;4884;42.614;23.340;2023-09-08T12:21:15;4.63;;;4.22;;
9689;SDS011;4884;42.614;23.340;2023-09-08T12:23:47;5.28;;;4.88;;
9689;SDS011;4884;42.614;23.340;2023-09-08T12:26:14;7.03;;;4.57;;
9689;SDS011;4884;42.614;23.340;2023-09-08T12:28:41;5.32;;;4.78;;
9689;SDS011;4884;42.614;23.340;2023-09-08T12:31:07;5.60;;;5.10;;
9689;SDS011;4884;42.614;23.340;2023-09-08T12:33:33;5.32;;;4.82;;
9689;SDS011;4884;42.614;23.340;2023-09-08T12:35:58;5.70;;;5.20;;
9689;SDS011;4884;42.614;23.340;2023-09-08T12:38:30;5.70;;;4.13;;
9689;SDS011;4884;42.614;23.340;2023-09-08T12:40:56;5.00;;;4.40;;
9689;SDS011;4884;42.614;23.340;2023-09-08T12:43:21;5.65;;;4.85;;
9689;SDS011;4884;42.614;23.340;2023-09-08T12:45:46;6.13;;;4.35;;
9689;SDS011;4884;42.614;23.340;2023-09-08T12:48:12;8.50;;;4.68;;
9689;SDS011;4884;42.614;23.340;2023-09-08T12:50:37;5.05;;;4.55;;
9689;SDS011;4884;42.614;23.340;2023-09-08T12:53:02;8.15;;;5.28;;
9689;SDS011;4884;42.614;23.340;2023-09-08T12:55:28;5.25;;;4.45;;
9689;SDS011;4884;42.614;23.340;2023-09-08T12:57:53;7.20;;;5.10;;
9689;SDS011;4884;42.614;23.340;2023-09-08T13:00:22;10.30;;;5.40;;
9689;SDS011;4884;42.614;23.340;2023-09-08T13:02:48;6.20;;;5.20;;
9689;SDS011;4884;42.614;23.340;2023-09-08T13:05:14;5.15;;;4.68;;
9689;SDS011;4884;42.614;23.340;2023-09-08T13:07:39;5.68;;;5.05;;
9689;SDS011;4884;42.614;23.340;2023-09-08T13:10:05;5.18;;;4.78;;
9689;SDS011;4884;42.614;23.340;2023-09-08T13:12:31;5.00;;;4.60;;
9689;SDS011;4884;42.614;23.340;2023-09-08T13:14:57;5.38;;;4.97;;
9689;SDS011;4884;42.614;23.340;2023-09-08T13:17:22;6.32;;;5.72;;
9689;SDS011;4884;42.614;23.340;2023-09-08T13:19:47;5.50;;;5.00;;
9689;SDS011;4884;42.614;23.340;2023-09-08T13:22:13;6.68;;;4.50;;
9689;SDS011;4884;42.614;23.340;2023-09-08T13:24:39;9.60;;;4.72;;
9689;SDS011;4884;42.614;23.340;2023-09-08T13:27:04;6.05;;;5.38;;
9689;SDS011;4884;42.614;23.340;2023-09-08T13:29:30;5.40;;;4.90;;
9689;SDS011;4884;42.614;23.340;2023-09-08T13:31:55;5.38;;;4.88;;
9689;SDS011;4884;42.614;23.340;2023-09-08T13:34:22;8.30;;;4.55;;
9689;SDS011;4884;42.614;23.340;2023-09-08T13:36:48;5.78;;;5.03;;
9689;SDS011;4884;42.614;23.340;2023-09-08T13:39:13;5.47;;;4.93;;
9689;SDS011;4884;42.614;23.340;2023-09-08T13:41:50;7.95;;;5.38;;
9689;SDS011;4884;42.614;23.340;2023-09-08T13:44:21;5.20;;;4.40;;
9689;SDS011;4884;42.614;23.340;2023-09-08T13:46:48;6.57;;;4.88;;
9689;SDS011;4884;42.614;23.340;2023-09-08T13:49:14;7.55;;;4.93;;
9689;SDS011;4884;42.614;23.340;2023-09-08T13:51:39;6.85;;;4.88;;
9689;SDS011;4884;42.614;23.340;2023-09-08T13:54:05;5.38;;;4.95;;
9689;SDS011;4884;42.614;23.340;2023-09-08T13:56:31;5.45;;;4.80;;
9689;SDS011;4884;42.614;23.340;2023-09-08T13:58:57;5.35;;;4.40;;
9689;SDS011;4884;42.614;23.340;2023-09-08T14:01:22;12.20;;;5.05;;
9689;SDS011;4884;42.614;23.340;2023-09-08T14:03:47;6.07;;;5.05;;
9689;SDS011;4884;42.614;23.340;2023-09-08T14:06:17;5.40;;;5.00;;
9689;SDS011;4884;42.614;23.340;2023-09-08T14:08:43;5.28;;;4.78;;
9689;SDS011;4884;42.614;23.340;2023-09-08T14:11:08;5.70;;;4.63;;
9689;SDS011;4884;42.614;23.340;2023-09-08T14:13:34;5.18;;;4.75;;
9689;SDS011;4884;42.614;23.340;2023-09-08T14:16:00;5.10;;;4.65;;
9689;SDS011;4884;42.614;23.340;2023-09-08T14:18:25;4.97;;;4.57;;
9689;SDS011;4884;42.614;23.340;2023-09-08T14:20:50;5.93;;;5.22;;
9689;SDS011;4884;42.614;23.340;2023-09-08T14:23:16;7.95;;;5.28;;
9689;SDS011;4884;42.614;23.340;2023-09-08T14:25:41;5.72;;;5.20;;
9689;SDS011;4884;42.614;23.340;2023-09-08T14:28:07;6.20;;;5.50;;
9689;SDS011;4884;42.614;23.340;2023-09-08T14:30:32;6.32;;;5.05;;
9689;SDS011;4884;42.614;23.340;2023-09-08T14:32:59;5.72;;;5.22;;
9689;SDS011;4884;42.614;23.340;2023-09-08T14:35:24;6.35;;;4.70;;
9689;SDS011;4884;42.614;23.340;2023-09-08T14:37:49;9.07;;;4.78;;
9689;SDS011;4884;42.614;23.340;2023-09-08T14:40:15;6.18;;;4.60;;
9689;SDS011;4884;42.614;23.340;2023-09-08T14:42:41;7.10;;;4.50;;
9689;SDS011;4884;42.614;23.340;2023-09-08T14:45:06;6.25;;;4.93;;
9689;SDS011;4884;42.614;23.340;2023-09-08T14:47:32;6.68;;;4.72;;
9689;SDS011;4884;42.614;23.340;2023-09-08T14:49:58;6.10;;;4.40;;
9689;SDS011;4884;42.614;23.340;2023-09-08T14:52:24;5.10;;;4.70;;
9689;SDS011;4884;42.614;23.340;2023-09-08T14:54:49;5.05;;;4.53;;
9689;SDS011;4884;42.614;23.340;2023-09-08T14:57:14;10.02;;;4.82;;
9689;SDS011;4884;42.614;23.340;2023-09-08T14:59:40;5.45;;;4.95;;
9689;SDS011;4884;42.614;23.340;2023-09-08T15:02:06;5.32;;;4.78;;